createdAt,value
2023-04-19T00:00:09.474Z,11.40
2023-04-19T00:02:42.721Z,11.40
2023-04-19T00:05:13.931Z,11.50
2023-04-19T00:07:43.490Z,11.40
2023-04-19T00:10:12.610Z,11.40
2023-04-19T00:12:41.699Z,11.40
2023-04-19T00:15:11.347Z,11.40
2023-04-19T00:17:40.460Z,11.30
2023-04-19T00:20:10.749Z,11.30
2023-04-19T00:22:41.317Z,11.20
2023-04-19T00:25:10.638Z,11.20
2023-04-19T00:27:39.666Z,11.10
2023-04-19T00:30:09.612Z,11.20
2023-04-19T00:32:38.720Z,11.10
2023-04-19T00:35:08.580Z,11.10
2023-04-19T00:37:37.676Z,11.10
2023-04-19T00:40:09.666Z,11.10
2023-04-19T00:42:39.297Z,11.10
2023-04-19T00:45:09.533Z,11.10
2023-04-19T00:47:39.679Z,11.00
2023-04-19T00:50:09.923Z,11.00
2023-04-19T00:52:39.042Z,11.00
2023-04-19T00:55:09.972Z,11.00
2023-04-19T00:57:39.343Z,11.00
2023-04-19T01:00:10.419Z,10.90
2023-04-19T01:02:39.766Z,10.90
2023-04-19T01:05:09.649Z,10.90
2023-04-19T01:07:38.865Z,10.80
2023-04-19T01:10:10.045Z,10.90
2023-04-19T01:12:39.066Z,10.80
2023-04-19T01:15:09.550Z,10.80
2023-04-19T01:17:38.865Z,10.80
2023-04-19T01:20:09.248Z,10.80
2023-04-19T01:22:40.279Z,10.80
2023-04-19T01:25:10.588Z,10.70
2023-04-19T01:27:39.624Z,10.70
2023-04-19T01:30:09.952Z,10.70
2023-04-19T01:32:39.038Z,10.70
2023-04-19T01:35:11.141Z,10.70
2023-04-19T01:37:41.581Z,10.70
2023-04-19T01:40:13.290Z,10.70
2023-04-19T01:42:42.446Z,10.70
2023-04-19T01:45:12.003Z,10.60
2023-04-19T01:47:41.162Z,10.60
2023-04-19T01:50:10.986Z,10.70
2023-04-19T01:52:41.508Z,10.60
2023-04-19T01:55:10.859Z,10.60
2023-04-19T01:57:39.887Z,10.60
2023-04-19T02:00:10.905Z,10.60
2023-04-19T02:02:45.617Z,10.50
2023-04-19T02:05:14.895Z,10.50
2023-04-19T02:07:45.297Z,10.40
2023-04-19T02:10:14.349Z,10.40
2023-04-19T02:12:44.460Z,10.40
2023-04-19T02:15:13.799Z,10.40
2023-04-19T02:17:43.541Z,10.40
2023-04-19T02:20:12.822Z,10.40
2023-04-19T02:22:41.896Z,10.40
2023-04-19T02:25:14.468Z,10.30
2023-04-19T02:27:43.485Z,10.30
2023-04-19T02:30:13.375Z,10.30
2023-04-19T02:32:42.572Z,10.30
2023-04-19T02:35:11.617Z,10.30
2023-04-19T02:37:40.633Z,10.30
2023-04-19T02:40:10.593Z,10.30
2023-04-19T02:42:41.114Z,10.20
2023-04-19T02:45:11.103Z,10.30
2023-04-19T02:47:40.356Z,10.20
2023-04-19T02:50:10.572Z,10.20
2023-04-19T02:52:45.848Z,10.20
2023-04-19T02:55:15.030Z,10.20
2023-04-19T02:57:46.010Z,10.20
2023-04-19T03:00:16.115Z,10.20
2023-04-19T03:02:56.232Z,10.20
2023-04-19T03:05:25.472Z,10.20
2023-04-19T03:07:54.724Z,10.20
2023-04-19T03:10:24.003Z,10.20
2023-04-19T03:12:54.490Z,10.20
2023-04-19T03:15:23.530Z,10.20
2023-04-19T03:17:52.653Z,10.20
2023-04-19T03:20:24.073Z,10.20
2023-04-19T03:22:53.303Z,10.20
2023-04-19T03:25:23.392Z,10.20
2023-04-19T03:28:01.918Z,10.20
2023-04-19T03:30:49.257Z,10.20
2023-04-19T03:33:18.343Z,10.20
2023-04-19T03:35:47.697Z,10.20
2023-04-19T03:38:17.986Z,10.20
2023-04-19T03:40:47.925Z,10.10
2023-04-19T03:43:20.048Z,10.10
2023-04-19T03:45:49.311Z,10.10
2023-04-19T03:48:18.487Z,10.10
2023-04-19T03:50:47.521Z,10.10
2023-04-19T03:53:20.020Z,10.10
2023-04-19T03:55:49.109Z,10.10
2023-04-19T03:58:20.254Z,10.10
2023-04-19T04:00:59.659Z,10.10
2023-04-19T04:03:28.973Z,10.10
2023-04-19T04:05:58.274Z,10.10
2023-04-19T04:08:27.513Z,10.10
2023-04-19T04:10:56.574Z,10.10
2023-04-19T04:13:27.126Z,10.00
2023-04-19T04:16:07.979Z,10.10
2023-04-19T04:18:37.573Z,10.10
2023-04-19T04:21:09.921Z,10.10
2023-04-19T04:23:43.024Z,10.10
2023-04-19T04:26:20.173Z,10.10
2023-04-19T04:29:13.581Z,10.20
2023-04-19T04:31:43.884Z,10.20
2023-04-19T04:34:13.281Z,10.20
2023-04-19T04:36:50.742Z,10.20
2023-04-19T04:39:21.635Z,10.20
2023-04-19T04:41:51.949Z,10.30
2023-04-19T04:44:23.165Z,10.30
2023-04-19T04:46:52.535Z,10.30
2023-04-19T04:49:26.978Z,10.30
2023-04-19T04:51:55.988Z,10.30
2023-04-19T04:54:25.370Z,10.30
2023-04-19T04:56:54.469Z,10.20
2023-04-19T04:59:25.734Z,10.20
2023-04-19T05:01:54.861Z,10.20
2023-04-19T05:04:24.508Z,10.10
2023-04-19T05:06:53.543Z,10.20
2023-04-19T05:09:27.162Z,10.10
2023-04-19T05:11:56.339Z,10.10
2023-04-19T05:14:27.558Z,10.10
2023-04-19T05:16:56.892Z,10.10
2023-04-19T05:19:26.028Z,10.10
2023-04-19T05:22:02.125Z,10.10
2023-04-19T05:24:31.214Z,10.00
2023-04-19T05:27:01.870Z,10.00
2023-04-19T05:29:33.194Z,10.00
2023-04-19T05:32:02.590Z,10.10
2023-04-19T05:34:34.623Z,10.10
2023-04-19T05:37:05.093Z,10.10
2023-04-19T05:39:34.191Z,10.10
2023-04-19T05:42:03.298Z,10.00
2023-04-19T05:44:34.051Z,10.10
2023-04-19T05:47:03.348Z,10.00
2023-04-19T05:49:55.318Z,10.00
2023-04-19T05:52:32.363Z,10.10
2023-04-19T05:55:02.754Z,10.10
2023-04-19T05:57:32.634Z,10.10
2023-04-19T06:00:03.363Z,10.10
2023-04-19T06:02:44.721Z,10.10
2023-04-19T06:05:16.218Z,10.20
2023-04-19T06:07:54.496Z,10.20
2023-04-19T06:10:34.023Z,10.20
2023-04-19T06:13:10.226Z,10.20
2023-04-19T06:15:41.227Z,10.20
2023-04-19T06:18:19.022Z,10.20
2023-04-19T06:20:49.007Z,10.20
2023-04-19T06:23:18.744Z,10.20
2023-04-19T06:25:49.116Z,10.20
2023-04-19T06:28:18.346Z,10.10
2023-04-19T06:30:49.583Z,10.20
2023-04-19T06:33:18.478Z,10.20
2023-04-19T06:35:47.408Z,10.20
2023-04-19T06:38:17.604Z,10.30
2023-04-19T06:40:46.821Z,10.20
2023-04-19T06:43:16.178Z,10.20
2023-04-19T06:45:45.442Z,10.20
2023-04-19T06:48:15.966Z,10.30
2023-04-19T06:50:45.113Z,10.30
2023-04-19T06:53:14.323Z,10.30
2023-04-19T06:55:43.489Z,10.30
2023-04-19T06:58:12.518Z,10.30
2023-04-19T07:00:41.829Z,10.30
2023-04-19T07:03:11.243Z,10.30
2023-04-19T07:05:41.883Z,10.30
2023-04-19T07:08:11.111Z,10.30
2023-04-19T07:10:40.219Z,10.40
2023-04-19T07:13:09.215Z,10.40
2023-04-19T07:15:38.461Z,10.40
2023-04-19T07:18:07.697Z,10.40
2023-04-19T07:20:36.816Z,10.30
2023-04-19T07:23:07.247Z,10.30
2023-04-19T07:25:36.345Z,10.30
2023-04-19T07:28:05.701Z,10.40
2023-04-19T07:30:34.753Z,10.40
2023-04-19T07:33:05.072Z,10.40
2023-04-19T07:35:34.249Z,10.40
2023-04-19T07:38:03.430Z,10.40
2023-04-19T07:40:33.856Z,10.40
2023-04-19T07:43:02.991Z,10.40
2023-04-19T07:45:32.391Z,10.40
2023-04-19T07:48:01.560Z,10.40
2023-04-19T07:50:30.776Z,10.40
2023-04-19T07:52:59.918Z,10.50
2023-04-19T07:55:29.048Z,10.50
2023-04-19T07:57:59.512Z,10.50
2023-04-19T08:00:30.008Z,10.60
2023-04-19T08:02:59.150Z,10.60
2023-04-19T08:05:28.781Z,10.60
2023-04-19T08:07:57.940Z,10.60
2023-04-19T08:10:28.852Z,10.70
2023-04-19T08:13:05.798Z,10.80
2023-04-19T08:18:08.202Z,10.70
2023-04-19T08:20:37.570Z,10.70
2023-04-19T08:23:20.717Z,10.70
2023-04-19T08:25:53.474Z,10.70
2023-04-19T08:28:24.747Z,10.80
2023-04-19T08:30:53.760Z,10.80
2023-04-19T08:33:22.895Z,10.90
2023-04-19T08:35:52.050Z,10.80
2023-04-19T08:38:21.400Z,10.80
2023-04-19T08:40:55.113Z,10.90
2023-04-19T08:43:28.940Z,10.90
2023-04-19T08:45:58.793Z,10.90
2023-04-19T08:48:29.376Z,10.90
2023-04-19T08:51:05.632Z,10.90
2023-04-19T08:53:36.729Z,10.90
2023-04-19T08:56:17.901Z,10.90
2023-04-19T08:59:07.563Z,11.00
2023-04-19T09:01:44.680Z,10.90
2023-04-19T09:04:31.730Z,10.80
2023-04-19T09:07:03.286Z,10.80
2023-04-19T09:09:39.057Z,10.80
2023-04-19T09:12:18.344Z,10.80
2023-04-19T09:17:21.132Z,10.90
2023-04-19T09:19:51.059Z,11.00
2023-04-19T09:22:20.276Z,11.00
2023-04-19T09:27:29.995Z,11.10
2023-04-19T09:30:01.877Z,11.10
2023-04-19T09:32:46.203Z,11.10
2023-04-19T09:35:15.356Z,11.10
2023-04-19T09:40:27.118Z,11.00
2023-04-19T09:45:40.190Z,10.90
2023-04-19T09:48:10.277Z,10.90
2023-04-19T09:50:58.571Z,10.90
2023-04-19T09:53:34.477Z,10.90
2023-04-19T09:56:06.865Z,10.90
2023-04-19T09:58:48.957Z,11.00
2023-04-19T10:01:23.796Z,10.90
2023-04-19T10:03:55.307Z,11.00
2023-04-19T10:08:58.884Z,11.00
2023-04-19T10:11:33.043Z,11.10
2023-04-19T10:14:04.222Z,11.20
2023-04-19T10:16:35.726Z,11.20
2023-04-19T10:19:08.705Z,11.10
2023-04-19T10:21:39.771Z,11.20
2023-04-19T10:24:09.655Z,11.20
2023-04-19T10:27:11.549Z,11.20
2023-04-19T10:29:56.913Z,11.30
2023-04-19T10:32:28.921Z,11.40
2023-04-19T10:35:03.914Z,11.40
2023-04-19T10:37:33.281Z,11.40
2023-04-19T10:40:02.465Z,11.40
2023-04-19T10:43:10.999Z,11.50
2023-04-19T10:45:40.649Z,11.50
2023-04-19T10:48:35.215Z,11.50
2023-04-19T10:51:05.536Z,11.50
2023-04-19T10:53:52.845Z,11.50
2023-04-19T10:56:24.363Z,11.60
2023-04-19T10:59:22.463Z,11.60
2023-04-19T11:01:54.107Z,11.70
2023-04-19T11:04:47.216Z,11.70
2023-04-19T11:07:18.370Z,11.70
2023-04-19T11:09:48.911Z,11.80
2023-04-19T11:12:18.923Z,11.80
2023-04-19T11:14:49.764Z,12.00
2023-04-19T11:17:20.724Z,12.00
2023-04-19T11:19:56.872Z,12.10
2023-04-19T11:22:33.576Z,12.00
2023-04-19T11:25:11.100Z,12.10
2023-04-19T11:27:41.223Z,12.00
2023-04-19T11:30:12.518Z,12.00
2023-04-19T11:32:46.306Z,12.00
2023-04-19T11:35:19.437Z,12.00
2023-04-19T11:37:48.668Z,12.00
2023-04-19T11:40:19.139Z,12.00
2023-04-19T11:42:48.585Z,11.90
2023-04-19T11:45:30.051Z,12.00
2023-04-19T11:48:01.155Z,12.00
2023-04-19T11:50:36.578Z,12.00
2023-04-19T11:53:14.440Z,12.00
2023-04-19T11:55:48.150Z,12.10
2023-04-19T11:58:29.509Z,12.10
2023-04-19T12:01:01.070Z,12.20
2023-04-19T12:03:30.335Z,12.30
2023-04-19T12:06:04.571Z,12.30
2023-04-19T12:08:34.954Z,12.40
2023-04-19T12:11:05.844Z,12.50
2023-04-19T12:13:36.454Z,12.60
2023-04-19T12:16:07.180Z,12.70
2023-04-19T12:18:48.794Z,12.80
2023-04-19T12:21:30.762Z,12.90
2023-04-19T12:24:01.780Z,13.00
2023-04-19T12:26:31.398Z,13.00
2023-04-19T12:29:02.744Z,13.00
2023-04-19T12:31:32.931Z,13.00
2023-04-19T12:34:01.979Z,13.00
2023-04-19T12:36:32.451Z,12.80
2023-04-19T12:39:01.506Z,12.80
2023-04-19T12:41:30.651Z,12.60
2023-04-19T12:43:59.724Z,12.60
2023-04-19T12:46:28.873Z,12.70
2023-04-19T12:48:57.956Z,12.80
2023-04-19T12:51:28.130Z,12.80
2023-04-19T12:53:58.647Z,12.80
2023-04-19T12:56:27.733Z,12.60
2023-04-19T12:58:56.842Z,12.60
2023-04-19T13:01:25.944Z,12.50
2023-04-19T13:03:58.150Z,12.50
2023-04-19T13:06:28.286Z,12.50
2023-04-19T13:09:01.185Z,12.70
2023-04-19T13:11:30.777Z,12.70
2023-04-19T13:13:59.820Z,12.80
2023-04-19T13:16:28.914Z,12.80
2023-04-19T13:18:57.929Z,12.80
2023-04-19T13:21:27.995Z,12.90
2023-04-19T13:23:59.187Z,12.90
2023-04-19T13:26:28.352Z,12.90
2023-04-19T13:28:57.564Z,12.80
2023-04-19T13:31:27.117Z,12.80
2023-04-19T13:33:56.524Z,12.80
2023-04-19T13:36:25.546Z,12.70
2023-04-19T13:38:54.664Z,12.60
2023-04-19T13:41:25.080Z,12.60
2023-04-19T13:43:54.112Z,12.50
2023-04-19T13:46:23.266Z,12.40
2023-04-19T13:48:52.323Z,12.40
2023-04-19T13:51:21.386Z,12.40
2023-04-19T13:53:50.442Z,12.40
2023-04-19T13:56:19.494Z,12.40
2023-04-19T13:58:49.936Z,12.30
2023-04-19T14:01:19.272Z,12.30
2023-04-19T14:03:48.628Z,12.20
2023-04-19T14:06:18.111Z,12.20
2023-04-19T14:08:47.836Z,12.30
2023-04-19T14:11:18.140Z,12.20
2023-04-19T14:13:48.365Z,12.20
2023-04-19T14:16:19.121Z,12.20
2023-04-19T14:18:48.260Z,12.20
2023-04-19T14:21:17.401Z,12.30
2023-04-19T14:23:46.633Z,12.40
2023-04-19T14:26:16.533Z,12.40
2023-04-19T14:28:45.621Z,12.40
2023-04-19T14:31:14.660Z,12.40
2023-04-19T14:33:45.084Z,12.40
2023-04-19T14:36:14.409Z,12.30
2023-04-19T14:38:43.513Z,12.30
2023-04-19T14:41:12.528Z,12.30
2023-04-19T14:43:41.691Z,12.20
2023-04-19T14:46:10.876Z,12.20
2023-04-19T14:48:39.992Z,12.30
2023-04-19T14:51:10.527Z,12.30
2023-04-19T14:53:39.575Z,12.40
2023-04-19T14:56:09.504Z,12.40
2023-04-19T14:58:38.634Z,12.40
2023-04-19T15:01:14.369Z,12.50
2023-04-19T15:03:43.752Z,12.60
2023-04-19T15:06:14.373Z,12.60
2023-04-19T15:08:43.947Z,12.60
2023-04-19T15:11:12.988Z,12.60
2023-04-19T15:13:42.041Z,12.60
2023-04-19T15:16:11.256Z,12.60
2023-04-19T15:18:40.636Z,12.70
2023-04-19T15:21:09.845Z,12.70
2023-04-19T15:23:40.781Z,12.70
2023-04-19T15:26:10.708Z,12.70
2023-04-19T15:28:39.723Z,12.80
2023-04-19T15:31:10.356Z,12.80
2023-04-19T15:33:39.509Z,12.80
2023-04-19T15:36:09.003Z,12.70
2023-04-19T15:38:38.418Z,12.70
2023-04-19T15:41:08.860Z,12.70
2023-04-19T15:43:38.147Z,12.70
2023-04-19T15:46:07.283Z,12.70
2023-04-19T15:48:36.446Z,12.80
2023-04-19T15:51:05.820Z,12.80
2023-04-19T15:53:35.151Z,12.80
2023-04-19T15:56:05.163Z,12.80
2023-04-19T15:58:35.569Z,12.80
2023-04-19T16:01:04.703Z,12.80
2023-04-19T16:03:33.932Z,12.80
2023-04-19T16:06:03.358Z,12.70
2023-04-19T16:08:32.517Z,12.70
2023-04-19T16:11:01.591Z,12.70
2023-04-19T16:13:31.555Z,12.70
2023-04-19T16:16:02.492Z,12.70
2023-04-19T16:18:31.583Z,12.70
2023-04-19T16:21:00.736Z,12.80
2023-04-19T16:23:29.787Z,12.80
2023-04-19T16:25:58.939Z,12.80
2023-04-19T16:28:28.124Z,12.80
2023-04-19T16:30:57.174Z,12.80
2023-04-19T16:33:27.640Z,12.80
2023-04-19T16:35:56.826Z,12.70
2023-04-19T16:38:26.256Z,12.70
2023-04-19T16:40:55.914Z,12.70
2023-04-19T16:43:25.041Z,12.60
2023-04-19T16:45:54.256Z,12.60
2023-04-19T16:48:23.486Z,12.50
2023-04-19T16:50:53.939Z,12.50
2023-04-19T16:53:23.180Z,12.50
2023-04-19T16:55:53.498Z,12.50
2023-04-19T16:58:23.311Z,12.50
2023-04-19T17:00:52.285Z,12.50
2023-04-19T17:03:22.087Z,12.60
2023-04-19T17:05:51.278Z,12.60
2023-04-19T17:08:22.314Z,12.60
2023-04-19T17:10:51.608Z,12.60
2023-04-19T17:13:20.995Z,12.60
2023-04-19T17:15:50.131Z,12.60
2023-04-19T17:18:19.459Z,12.60
2023-04-19T17:20:48.759Z,12.60
2023-04-19T17:23:17.900Z,12.60
2023-04-19T17:25:48.374Z,12.50
2023-04-19T17:28:17.846Z,12.50
2023-04-19T17:30:46.963Z,12.50
2023-04-19T17:33:16.069Z,12.60
2023-04-19T17:35:45.251Z,12.60
2023-04-19T17:38:14.355Z,12.60
2023-04-19T17:40:43.412Z,12.60
2023-04-19T17:43:15.115Z,12.60
2023-04-19T17:45:44.209Z,12.60
2023-04-19T17:48:13.351Z,12.60
2023-04-19T17:50:42.427Z,12.60
2023-04-19T17:53:11.711Z,12.60
2023-04-19T17:55:40.811Z,12.60
2023-04-19T17:58:09.962Z,12.60
2023-04-19T18:00:41.001Z,12.60
2023-04-19T18:03:11.417Z,12.60
2023-04-19T18:05:41.028Z,12.60
2023-04-19T18:08:10.182Z,12.70
2023-04-19T18:10:39.238Z,12.70
2023-04-19T18:13:08.329Z,12.70
2023-04-19T18:15:37.530Z,12.70
2023-04-19T18:18:08.326Z,12.70
2023-04-19T18:20:37.555Z,12.70
2023-04-19T18:23:06.534Z,12.70
2023-04-19T18:25:36.986Z,12.70
2023-04-19T18:28:06.928Z,12.60
2023-04-19T18:30:36.169Z,12.60
2023-04-19T18:33:05.308Z,12.60
2023-04-19T18:35:36.710Z,12.60
2023-04-19T18:38:05.534Z,12.60
2023-04-19T18:40:34.641Z,12.60
2023-04-19T18:43:03.778Z,12.50
2023-04-19T18:45:33.254Z,12.50
2023-04-19T18:48:02.632Z,12.50
2023-04-19T18:50:32.300Z,12.50
2023-04-19T18:53:02.760Z,12.40
2023-04-19T18:55:32.220Z,12.40
2023-04-19T18:58:01.673Z,12.40
2023-04-19T19:00:31.449Z,12.40
2023-04-19T19:03:01.997Z,12.40
2023-04-19T19:05:32.459Z,12.40
2023-04-19T19:08:03.445Z,12.40
2023-04-19T19:10:58.818Z,12.40
2023-04-19T19:13:21.658Z,12.40
2023-04-19T19:15:50.880Z,12.30
2023-04-19T19:18:19.968Z,12.30
2023-04-19T19:20:51.256Z,12.30
2023-04-19T19:23:34.635Z,12.30
2023-04-19T19:26:05.089Z,12.30
2023-04-19T19:28:34.539Z,12.30
2023-04-19T19:31:03.982Z,12.30
2023-04-19T19:33:33.311Z,12.30
2023-04-19T19:36:02.460Z,12.30
2023-04-19T19:38:32.972Z,12.30
2023-04-19T19:43:35.076Z,12.20
2023-04-19T19:46:04.317Z,12.20
2023-04-19T19:48:40.326Z,12.20
2023-04-19T19:53:44.918Z,12.20
2023-04-19T19:56:21.427Z,12.20
2023-04-19T19:58:52.436Z,12.20
2023-04-19T20:01:22.484Z,12.20
2023-04-19T20:03:52.736Z,12.20
2023-04-19T20:08:57.425Z,12.30
2023-04-19T20:11:26.700Z,12.20
2023-04-19T20:13:55.869Z,12.20
2023-04-19T20:16:25.122Z,12.20
2023-04-19T20:18:54.519Z,12.20
2023-04-19T20:21:23.529Z,12.20
2023-04-19T20:23:52.749Z,12.20
2023-04-19T20:26:23.170Z,12.20
2023-04-19T20:28:52.706Z,12.30
2023-04-19T20:31:23.859Z,12.30
2023-04-19T20:33:52.941Z,12.20
2023-04-19T20:36:23.497Z,12.20
2023-04-19T20:38:53.231Z,12.20
2023-04-19T20:41:23.667Z,12.20
2023-04-19T20:43:52.704Z,12.20
2023-04-19T20:46:22.057Z,12.20
2023-04-19T20:48:51.251Z,12.20
2023-04-19T20:51:20.330Z,12.20
2023-04-19T20:53:49.480Z,12.20
2023-04-19T20:56:18.477Z,12.20
2023-04-19T20:58:48.872Z,12.20
2023-04-19T21:01:18.150Z,12.20
2023-04-19T21:03:47.786Z,12.20
2023-04-19T21:06:17.121Z,12.20
2023-04-19T21:08:46.209Z,12.20
2023-04-19T21:11:15.244Z,12.10
2023-04-19T21:13:44.252Z,12.10
2023-04-19T21:16:14.736Z,12.10
2023-04-19T21:18:43.773Z,12.10
2023-04-19T21:21:12.792Z,12.10
2023-04-19T21:23:41.828Z,12.10
2023-04-19T21:26:10.875Z,12.10
2023-04-19T21:28:39.981Z,12.00
2023-04-19T21:31:09.118Z,12.00
2023-04-19T21:33:39.666Z,12.10
2023-04-19T21:36:09.271Z,12.00
2023-04-19T21:38:38.294Z,12.10
2023-04-19T21:41:08.391Z,12.00
2023-04-19T21:43:37.627Z,12.00
2023-04-19T21:46:06.793Z,12.00
2023-04-19T21:48:35.905Z,12.00
2023-04-19T21:51:06.688Z,12.00
2023-04-19T21:53:36.373Z,12.00
2023-04-19T21:56:05.805Z,12.00
2023-04-19T21:58:34.883Z,12.00
2023-04-19T22:01:04.083Z,12.00
2023-04-19T22:03:33.341Z,11.90
2023-04-19T22:06:02.643Z,11.90
2023-04-19T22:08:34.030Z,12.00
2023-04-19T22:11:03.658Z,12.00
2023-04-19T22:13:33.580Z,11.90
2023-04-19T22:16:02.833Z,11.90
2023-04-19T22:18:34.645Z,11.90
2023-04-19T22:21:03.733Z,11.90
2023-04-19T22:23:34.181Z,11.90
2023-04-19T22:26:03.346Z,11.90
2023-04-19T22:28:33.813Z,11.90
2023-04-19T22:31:02.961Z,11.90
2023-04-19T22:33:32.000Z,11.90
2023-04-19T22:36:01.087Z,11.90
2023-04-19T22:38:30.184Z,11.90
2023-04-19T22:41:01.105Z,11.90
2023-04-19T22:43:30.155Z,11.80
2023-04-19T22:45:59.240Z,11.80
2023-04-19T22:48:30.175Z,11.80
2023-04-19T22:50:59.249Z,11.70
2023-04-19T22:53:28.329Z,11.70
2023-04-19T22:55:57.338Z,11.70
2023-04-19T22:58:27.772Z,11.70
2023-04-19T23:00:56.944Z,11.60
2023-04-19T23:03:26.131Z,11.60
2023-04-19T23:05:55.484Z,11.60
2023-04-19T23:08:25.033Z,11.60
2023-04-19T23:10:55.098Z,11.60
2023-04-19T23:13:24.137Z,11.60
2023-04-19T23:15:54.780Z,11.60
2023-04-19T23:18:23.883Z,11.60
2023-04-19T23:20:52.958Z,11.60
2023-04-19T23:23:21.961Z,11.50
2023-04-19T23:25:50.997Z,11.50
2023-04-19T23:28:20.027Z,11.50
2023-04-19T23:30:49.175Z,11.50
2023-04-19T23:33:19.632Z,11.50
2023-04-19T23:35:48.665Z,11.50
2023-04-19T23:38:17.847Z,11.40
2023-04-19T23:40:47.013Z,11.40
2023-04-19T23:43:16.053Z,11.40
2023-04-19T23:45:45.154Z,11.40
2023-04-19T23:48:14.249Z,11.40
2023-04-19T23:50:45.215Z,11.30
2023-04-19T23:53:14.380Z,11.30
2023-04-19T23:55:43.392Z,11.30
2023-04-19T23:58:12.381Z,11.30
